createdAt,value
2023-01-23T00:00:56.967Z,93.28
2023-01-23T00:02:25.859Z,93.18
2023-01-23T00:07:48.003Z,92.97
2023-01-23T00:10:16.337Z,93.07
2023-01-23T00:12:15.199Z,93.18
2023-01-23T00:14:43.975Z,93.18
2023-01-23T00:18:03.348Z,93.02
2023-01-23T00:20:22.957Z,92.93
2023-01-23T00:23:21.611Z,93.07
2023-01-23T00:26:54.703Z,93.28
2023-01-23T00:30:20.699Z,93.49
2023-01-23T00:31:19.794Z,93.38
2023-01-23T00:32:19.709Z,93.38
2023-01-23T00:33:19.678Z,93.28
2023-01-23T00:37:55.999Z,93.18
2023-01-23T00:39:53.865Z,93.28
2023-01-23T00:41:56.855Z,93.28
2023-01-23T00:44:52.512Z,93.18
2023-01-23T00:48:12.616Z,93.28
2023-01-23T00:50:12.366Z,93.18
2023-01-23T00:54:10.614Z,93.18
2023-01-23T00:56:39.457Z,93.28
2023-01-23T01:00:55.921Z,93.07
2023-01-23T01:03:46.505Z,93.18
2023-01-23T01:11:29.615Z,93.28
2023-01-23T01:12:59.697Z,93.28
2023-01-23T01:18:35.045Z,93.18
2023-01-23T01:22:34.923Z,93.07
2023-01-23T01:27:09.130Z,93.18
2023-01-23T01:31:05.205Z,93.28
2023-01-23T01:32:34.063Z,93.38
2023-01-23T01:39:36.222Z,93.38
2023-01-23T01:42:04.838Z,93.28
2023-01-23T01:43:33.725Z,93.28
2023-01-23T01:45:33.675Z,93.38
2023-01-23T01:52:39.816Z,93.18
2023-01-23T01:54:38.654Z,92.97
2023-01-23T01:59:45.104Z,93.07
2023-01-23T02:01:43.899Z,92.97
2023-01-23T02:09:23.653Z,92.97
2023-01-23T02:13:14.204Z,93.07
2023-01-23T02:15:10.743Z,92.97
2023-01-23T02:17:08.696Z,92.93
2023-01-23T02:18:37.619Z,92.93
2023-01-23T02:21:06.376Z,92.93
2023-01-23T02:24:06.055Z,92.82
2023-01-23T02:26:56.073Z,92.82
2023-01-23T02:28:25.061Z,92.82
2023-01-23T02:30:24.363Z,92.86
2023-01-23T02:36:06.163Z,92.97
2023-01-23T02:38:26.667Z,93.07
2023-01-23T02:47:22.262Z,93.18
2023-01-23T02:49:21.158Z,93.18
2023-01-23T02:50:48.266Z,93.28
2023-01-23T02:53:15.891Z,93.28
2023-01-23T03:00:00.387Z,93.18
2023-01-23T03:02:00.998Z,93.18
2023-01-23T03:04:46.481Z,93.02
2023-01-23T03:08:14.637Z,92.93
2023-01-23T03:13:20.341Z,92.82
2023-01-23T03:14:49.223Z,92.82
2023-01-23T03:17:54.018Z,92.86
2023-01-23T03:19:51.953Z,92.97
2023-01-23T03:24:42.560Z,93.18
2023-01-23T03:28:58.951Z,93.18
2023-01-23T03:30:28.087Z,93.02
2023-01-23T03:33:25.782Z,93.18
2023-01-23T03:36:23.659Z,93.28
2023-01-23T03:37:52.567Z,93.28
2023-01-23T03:39:21.429Z,93.28
2023-01-23T03:40:51.376Z,93.18
2023-01-23T03:42:20.214Z,93.13
2023-01-23T03:43:50.479Z,93.02
2023-01-23T03:45:50.768Z,92.82
2023-01-23T03:48:47.513Z,93.02
2023-01-23T03:52:05.046Z,92.82
2023-01-23T03:54:05.859Z,92.93
2023-01-23T03:56:36.364Z,92.82
2023-01-23T03:58:07.091Z,92.82
2023-01-23T04:01:34.108Z,92.82
2023-01-23T04:03:32.085Z,92.93
2023-01-23T04:05:02.150Z,92.82
2023-01-23T04:10:26.563Z,92.82
2023-01-23T04:12:15.331Z,92.82
2023-01-23T04:15:12.384Z,92.93
2023-01-23T04:17:12.758Z,92.93
2023-01-23T04:24:44.457Z,92.82
2023-01-23T04:30:08.354Z,92.82
2023-01-23T04:33:36.239Z,92.82
2023-01-23T04:41:39.437Z,92.72
2023-01-23T04:45:06.216Z,92.72
2023-01-23T04:46:36.419Z,92.72
2023-01-23T04:50:53.420Z,92.72
2023-01-23T04:53:21.230Z,92.61
2023-01-23T04:55:20.252Z,92.61
2023-01-23T05:00:33.867Z,92.61
2023-01-23T05:07:25.497Z,92.61
2023-01-23T05:10:31.734Z,92.72
2023-01-23T05:13:27.649Z,92.72
2023-01-23T05:16:15.469Z,92.72
2023-01-23T05:24:44.527Z,93.18
2023-01-23T05:29:28.320Z,93.13
2023-01-23T05:31:28.294Z,93.13
2023-01-23T05:32:58.550Z,93.23
2023-01-23T05:35:25.896Z,93.23
2023-01-23T05:39:33.628Z,93.33
2023-01-23T05:43:32.215Z,93.33
2023-01-23T05:45:04.035Z,93.33
2023-01-23T05:49:18.359Z,93.13
2023-01-23T05:51:08.090Z,92.98
2023-01-23T05:54:55.857Z,93.02
2023-01-23T05:56:54.660Z,93.13
2023-01-23T05:58:52.444Z,93.13
2023-01-23T06:00:22.454Z,93.13
2023-01-23T06:04:28.348Z,92.93
2023-01-23T06:14:07.763Z,92.82
2023-01-23T06:16:23.308Z,92.82
2023-01-23T06:19:09.940Z,92.78
2023-01-23T06:24:34.899Z,92.72
2023-01-23T06:27:02.964Z,92.72
2023-01-23T06:33:51.363Z,92.88
2023-01-23T06:35:21.497Z,92.82
2023-01-23T06:39:18.335Z,92.88
2023-01-23T06:42:07.054Z,92.88
2023-01-23T06:45:33.192Z,93.02
2023-01-23T06:47:02.108Z,93.13
2023-01-23T06:50:31.177Z,93.02
2023-01-23T06:56:13.766Z,93.13
2023-01-23T06:58:32.440Z,93.02
2023-01-23T07:01:58.493Z,93.13
2023-01-23T07:07:08.927Z,93.33
2023-01-23T07:08:38.811Z,93.23
2023-01-23T07:11:27.778Z,93.33
2023-01-23T07:12:57.855Z,93.33
2023-01-23T07:15:56.989Z,93.44
2023-01-23T07:19:17.533Z,93.33
2023-01-23T07:23:04.760Z,93.65
2023-01-23T07:25:30.888Z,93.65
2023-01-23T07:29:27.391Z,93.44
2023-01-23T07:31:27.878Z,93.50
2023-01-23T07:33:23.980Z,93.54
2023-01-23T07:39:51.016Z,93.65
2023-01-23T07:41:20.886Z,93.60
2023-01-23T07:44:51.599Z,93.65
2023-01-23T07:46:23.399Z,93.65
2023-01-23T07:48:20.970Z,93.60
2023-01-23T07:51:08.639Z,93.40
2023-01-23T07:52:38.554Z,93.19
2023-01-23T07:55:08.981Z,93.29
2023-01-23T07:58:25.738Z,93.19
2023-01-23T08:04:32.789Z,93.08
2023-01-23T08:07:30.509Z,93.19
2023-01-23T08:15:22.214Z,92.94
2023-01-23T08:17:50.472Z,92.74
2023-01-23T08:20:49.568Z,92.74
2023-01-23T08:22:39.295Z,92.84
2023-01-23T08:27:57.390Z,92.74
2023-01-23T08:32:03.234Z,92.74
2023-01-23T08:37:31.099Z,92.49
2023-01-23T08:40:50.865Z,92.53
2023-01-23T08:45:39.599Z,92.63
2023-01-23T08:47:41.010Z,92.53
2023-01-23T08:52:16.914Z,92.32
2023-01-23T08:57:56.330Z,91.97
2023-01-23T08:59:53.307Z,91.86
2023-01-23T09:03:18.273Z,91.66
2023-01-23T09:06:16.265Z,91.55
2023-01-23T09:08:45.356Z,91.86
2023-01-23T09:10:16.077Z,91.76
2023-01-23T09:12:35.880Z,91.45
2023-01-23T09:18:32.505Z,91.76
2023-01-23T09:21:19.648Z,91.76
2023-01-23T09:22:51.469Z,91.72
2023-01-23T09:25:09.133Z,91.51
2023-01-23T09:26:38.276Z,91.41
2023-01-23T09:29:05.000Z,91.41
2023-01-23T09:35:52.722Z,91.05
2023-01-23T09:38:15.276Z,91.16
2023-01-23T09:41:28.057Z,91.05
2023-01-23T09:42:57.338Z,91.05
2023-01-23T09:46:54.226Z,91.16
2023-01-23T09:53:35.123Z,91.05
2023-01-23T09:55:04.056Z,90.99
2023-01-23T09:57:01.160Z,90.95
2023-01-23T10:00:32.049Z,90.60
2023-01-23T10:03:03.646Z,90.44
2023-01-23T10:05:53.014Z,90.53
2023-01-23T10:11:48.311Z,89.98
2023-01-23T10:14:08.851Z,89.87
2023-01-23T10:16:50.556Z,89.77
2023-01-23T10:21:37.235Z,89.40
2023-01-23T10:27:19.413Z,89.29
2023-01-23T10:31:39.153Z,89.19
2023-01-23T10:35:33.561Z,89.50
2023-01-23T10:37:32.639Z,89.29
2023-01-23T10:42:35.753Z,89.19
2023-01-23T10:47:32.034Z,88.98
2023-01-23T10:48:57.483Z,88.98
2023-01-23T10:50:56.828Z,89.09
2023-01-23T10:54:07.197Z,89.09
2023-01-23T11:00:40.087Z,88.84
2023-01-23T11:03:11.273Z,88.64
2023-01-23T11:09:11.040Z,89.19
2023-01-23T11:11:59.805Z,88.98
2023-01-23T11:14:28.179Z,88.84
2023-01-23T11:16:28.072Z,88.64
2023-01-23T11:22:10.325Z,88.53
2023-01-23T11:31:20.792Z,88.53
2023-01-23T11:37:01.140Z,88.78
2023-01-23T11:41:23.713Z,88.78
2023-01-23T11:44:23.116Z,88.67
2023-01-23T11:46:20.922Z,88.78
2023-01-23T11:48:44.735Z,88.32
2023-01-23T11:50:16.457Z,88.32
2023-01-23T11:52:33.450Z,88.53
2023-01-23T11:55:05.491Z,88.43
2023-01-23T11:56:36.161Z,88.43
2023-01-23T11:58:04.987Z,88.57
2023-01-23T12:00:51.437Z,88.43
2023-01-23T12:04:50.503Z,88.22
2023-01-23T12:06:49.272Z,88.01
2023-01-23T12:10:06.211Z,87.66
2023-01-23T12:11:06.199Z,87.29
2023-01-23T12:12:06.163Z,87.29
2023-01-23T12:16:26.907Z,87.15
2023-01-23T12:18:18.011Z,86.83
2023-01-23T12:20:39.524Z,85.72
2023-01-23T12:22:18.457Z,85.06
2023-01-23T12:26:10.576Z,83.23
2023-01-23T12:33:41.506Z,78.69
2023-01-23T12:35:10.442Z,77.83
2023-01-23T12:40:18.440Z,76.39
2023-01-23T12:41:50.913Z,76.32
2023-01-23T12:45:49.762Z,77.04
2023-01-23T12:48:47.004Z,76.59
2023-01-23T12:51:58.090Z,76.01
2023-01-23T12:53:25.329Z,76.42
2023-01-23T12:54:59.543Z,76.70
2023-01-23T12:58:00.149Z,78.52
2023-01-23T13:00:14.012Z,79.00
2023-01-23T13:02:15.112Z,79.31
2023-01-23T13:04:05.652Z,79.41
2023-01-23T13:08:38.152Z,79.52
2023-01-23T13:10:25.878Z,79.31
2023-01-23T13:11:53.452Z,78.80
2023-01-23T13:14:13.146Z,78.28
2023-01-23T13:16:32.748Z,79.04
2023-01-23T13:19:07.980Z,78.73
2023-01-23T13:21:59.045Z,78.56
2023-01-23T13:25:13.238Z,78.97
2023-01-23T13:28:45.075Z,79.28
2023-01-23T13:30:09.543Z,79.18
2023-01-23T13:34:20.526Z,79.90
2023-01-23T13:38:09.123Z,79.80
2023-01-23T13:40:06.443Z,79.55
2023-01-23T13:41:30.763Z,79.08
2023-01-23T13:45:01.375Z,79.18
2023-01-23T13:46:26.637Z,79.28
2023-01-23T13:48:29.970Z,79.49
2023-01-23T13:53:27.482Z,79.28
2023-01-23T13:59:24.854Z,80.00
2023-01-23T14:01:24.739Z,80.04
2023-01-23T14:03:14.690Z,79.94
2023-01-23T14:05:54.310Z,80.35
2023-01-23T14:12:28.962Z,81.18
2023-01-23T14:14:28.737Z,80.97
2023-01-23T14:18:52.914Z,81.38
2023-01-23T14:29:20.131Z,81.18
2023-01-23T14:31:12.880Z,80.87
2023-01-23T14:34:09.216Z,80.97
2023-01-23T14:35:31.273Z,80.87
2023-01-23T14:37:27.829Z,80.87
2023-01-23T14:41:00.875Z,81.38
2023-01-23T14:43:51.511Z,82.04
2023-01-23T14:46:42.994Z,82.45
2023-01-23T14:52:09.059Z,82.62
2023-01-23T15:02:16.314Z,83.18
2023-01-23T15:03:55.801Z,82.87
2023-01-23T15:05:25.166Z,82.73
2023-01-23T15:08:13.876Z,82.62
2023-01-23T15:09:42.878Z,82.62
2023-01-23T15:11:37.550Z,82.83
2023-01-23T15:14:00.502Z,83.07
2023-01-23T15:19:16.722Z,83.18
2023-01-23T15:24:36.891Z,83.28
2023-01-23T15:27:06.577Z,83.28
2023-01-23T15:28:37.415Z,83.28
2023-01-23T15:30:06.393Z,83.63
2023-01-23T15:32:35.817Z,84.70
2023-01-23T15:39:30.247Z,84.66
2023-01-23T15:42:01.514Z,85.08
2023-01-23T15:43:34.512Z,84.87
2023-01-23T15:45:03.395Z,84.66
2023-01-23T15:48:04.166Z,84.97
2023-01-23T15:52:36.523Z,85.42
2023-01-23T15:53:38.303Z,85.42
2023-01-23T15:54:37.222Z,85.32
2023-01-23T15:57:54.931Z,85.42
2023-01-23T15:59:24.083Z,85.53
2023-01-23T16:05:04.605Z,85.32
2023-01-23T16:07:03.482Z,85.53
2023-01-23T16:08:33.603Z,85.84
2023-01-23T16:10:09.196Z,85.84
2023-01-23T16:14:58.698Z,85.74
2023-01-23T16:16:25.787Z,85.74
2023-01-23T16:18:14.398Z,86.05
2023-01-23T16:21:03.044Z,85.94
2023-01-23T16:23:20.862Z,86.25
2023-01-23T16:25:52.434Z,86.71
2023-01-23T16:37:15.952Z,87.02
2023-01-23T16:38:46.866Z,87.33
2023-01-23T16:43:16.323Z,87.33
2023-01-23T16:44:47.191Z,87.23
2023-01-23T16:46:47.972Z,86.88
2023-01-23T16:53:11.057Z,87.02
2023-01-23T16:56:40.551Z,87.43
2023-01-23T16:58:10.439Z,87.43
2023-01-23T16:59:39.364Z,87.23
2023-01-23T17:01:08.360Z,87.23
2023-01-23T17:15:25.717Z,87.23
2023-01-23T17:18:24.427Z,87.43
2023-01-23T17:20:54.419Z,87.23
2023-01-23T17:25:15.102Z,87.54
2023-01-23T17:27:44.520Z,87.43
2023-01-23T17:29:34.765Z,87.23
2023-01-23T17:31:45.024Z,87.12
2023-01-23T17:34:36.020Z,87.64
2023-01-23T17:36:22.935Z,87.54
2023-01-23T17:41:44.668Z,87.33
2023-01-23T17:44:15.025Z,87.43
2023-01-23T17:46:15.570Z,87.43
2023-01-23T17:47:45.071Z,87.43
2023-01-23T17:52:52.982Z,87.23
2023-01-23T17:59:41.600Z,87.23
2023-01-23T18:01:41.721Z,87.33
2023-01-23T18:05:25.391Z,87.74
2023-01-23T18:10:49.607Z,87.54
2023-01-23T18:12:17.279Z,87.54
2023-01-23T18:17:56.435Z,87.54
2023-01-23T18:20:17.331Z,87.33
2023-01-23T18:26:10.914Z,87.23
2023-01-23T18:29:49.108Z,87.02
2023-01-23T18:33:15.188Z,87.12
2023-01-23T18:36:02.111Z,87.23
2023-01-23T18:38:32.252Z,87.33
2023-01-23T18:42:50.344Z,87.64
2023-01-23T18:46:28.453Z,88.16
2023-01-23T18:50:48.389Z,88.20
2023-01-23T18:57:20.907Z,88.16
2023-01-23T19:00:02.435Z,88.06
2023-01-23T19:01:32.410Z,88.16
2023-01-23T19:03:51.266Z,88.20
2023-01-23T19:09:52.843Z,88.20
2023-01-23T19:13:14.420Z,88.16
2023-01-23T19:14:11.719Z,88.16
2023-01-23T19:15:11.678Z,87.95
2023-01-23T19:20:22.367Z,88.51
2023-01-23T19:26:44.621Z,89.13
2023-01-23T19:28:45.422Z,89.03
2023-01-23T19:30:15.358Z,88.92
2023-01-23T19:32:44.539Z,88.92
2023-01-23T19:38:04.558Z,89.34
2023-01-23T19:40:22.613Z,89.13
2023-01-23T19:41:52.694Z,89.17
2023-01-23T19:43:54.874Z,89.17
2023-01-23T19:46:02.088Z,89.28
2023-01-23T19:49:35.567Z,89.03
2023-01-23T19:50:44.466Z,88.92
2023-01-23T19:52:14.806Z,88.96
2023-01-23T19:55:06.113Z,89.03
2023-01-23T19:58:34.781Z,88.71
2023-01-23T20:00:02.923Z,88.51
2023-01-23T20:04:23.238Z,88.40
2023-01-23T20:08:09.920Z,88.40
2023-01-23T20:10:56.580Z,88.30
2023-01-23T20:13:30.369Z,88.09
2023-01-23T20:15:48.154Z,87.88
2023-01-23T20:16:48.162Z,87.88
2023-01-23T20:17:48.111Z,87.74
2023-01-23T20:20:23.914Z,88.09
2023-01-23T20:25:01.021Z,88.09
2023-01-23T20:28:53.495Z,87.88
2023-01-23T20:30:54.478Z,87.68
2023-01-23T20:32:22.837Z,87.78
2023-01-23T20:34:43.087Z,88.09
2023-01-23T20:37:29.985Z,88.20
2023-01-23T20:39:03.988Z,88.20
2023-01-23T20:42:14.300Z,88.20
2023-01-23T20:43:44.199Z,88.30
2023-01-23T20:45:42.505Z,88.20
2023-01-23T20:49:17.903Z,88.76
2023-01-23T20:52:46.342Z,88.76
2023-01-23T20:55:16.419Z,88.65
2023-01-23T21:00:05.333Z,88.40
2023-01-23T21:01:36.527Z,88.30
2023-01-23T21:03:04.610Z,88.09
2023-01-23T21:05:59.660Z,88.34
2023-01-23T21:08:28.100Z,88.45
2023-01-23T21:10:17.796Z,88.55
2023-01-23T21:12:48.641Z,88.34
2023-01-23T21:15:22.337Z,88.34
2023-01-23T21:16:49.088Z,88.30
2023-01-23T21:18:19.048Z,88.24
2023-01-23T21:20:19.303Z,88.13
2023-01-23T21:22:53.507Z,87.99
2023-01-23T21:24:22.310Z,88.03
2023-01-23T21:33:37.411Z,88.13
2023-01-23T21:34:37.403Z,87.99
2023-01-23T21:35:37.422Z,87.99
2023-01-23T21:36:37.635Z,87.78
2023-01-23T21:39:25.027Z,87.93
2023-01-23T21:40:54.235Z,87.88
2023-01-23T21:42:44.382Z,87.93
2023-01-23T21:43:52.313Z,88.24
2023-01-23T21:45:21.379Z,88.03
2023-01-23T21:46:51.335Z,87.93
2023-01-23T21:49:15.640Z,88.03
2023-01-23T21:51:26.204Z,87.88
2023-01-23T21:52:36.187Z,87.82
2023-01-23T21:54:03.241Z,87.88
2023-01-23T21:56:02.652Z,87.72
2023-01-23T21:58:51.311Z,88.34
2023-01-23T22:03:08.907Z,87.93
2023-01-23T22:08:09.033Z,88.03
2023-01-23T22:11:07.847Z,88.13
2023-01-23T22:12:37.144Z,88.34
2023-01-23T22:14:06.010Z,88.45
2023-01-23T22:16:47.951Z,88.90
2023-01-23T22:18:04.656Z,88.79
2023-01-23T22:20:04.515Z,89.00
2023-01-23T22:22:31.710Z,89.11
2023-01-23T22:24:32.191Z,89.00
2023-01-23T22:27:50.233Z,88.86
2023-01-23T22:30:31.241Z,88.65
2023-01-23T22:36:57.439Z,88.45
2023-01-23T22:37:58.056Z,88.34
2023-01-23T22:38:57.336Z,88.24
2023-01-23T22:42:19.050Z,88.45
2023-01-23T22:43:57.683Z,88.55
2023-01-23T22:45:47.389Z,88.55
2023-01-23T22:47:45.133Z,88.45
2023-01-23T22:49:13.522Z,88.65
2023-01-23T22:50:45.384Z,88.69
2023-01-23T22:52:11.707Z,88.86
2023-01-23T22:54:29.038Z,88.76
2023-01-23T22:57:48.471Z,88.96
2023-01-23T23:00:14.662Z,88.86
2023-01-23T23:01:43.627Z,89.11
2023-01-23T23:03:13.889Z,89.38
2023-01-23T23:05:36.471Z,89.31
2023-01-23T23:07:23.361Z,89.38
2023-01-23T23:08:53.250Z,89.28
2023-01-23T23:10:22.970Z,89.07
2023-01-23T23:11:52.900Z,89.31
2023-01-23T23:15:12.243Z,89.73
2023-01-23T23:16:43.167Z,89.62
2023-01-23T23:18:12.168Z,89.62
2023-01-23T23:20:00.853Z,89.73
2023-01-23T23:24:59.231Z,89.42
2023-01-23T23:29:33.558Z,89.42
2023-01-23T23:31:01.525Z,89.31
2023-01-23T23:32:29.585Z,89.52
2023-01-23T23:35:18.325Z,89.36
2023-01-23T23:37:16.595Z,89.67
2023-01-23T23:40:35.085Z,89.52
2023-01-23T23:42:34.874Z,89.52
2023-01-23T23:45:36.387Z,89.31
2023-01-23T23:55:03.039Z,89.36
2023-01-23T23:56:35.891Z,89.21
2023-01-23T23:59:24.207Z,89.04
